CheckWX is a tool to help pilots better visualize weather data.  It is not intended as a substitute for an official pre-flight weather briefing.

22:37:24 UTC

GMMX METAR
Menara Airport
Marrakech, Morocco
Current

37 mins ago

GMMX 262200Z VRB02KT 3000 TSRA BKN026 SCT033CB 13/13 Q1013 NOSIG
Observed
Mar-26 @ 22:00 UTC
Wind
  • Variable at 2 KTS
Visibility
2,993 meters
Flight Rules
IFR
Conditions
Thunderstorm, Rain
Cloud Levels
  • Broken at 2,600' AGL
  • Scattered at 3,300' AGL
Temperature
13°C / 55°F
Dewpoint
13°C / 55°F
Humidity
100%
Altimeter
29.91" Hg
Pressure
1012.92 hPa
Previous

1 hour ago

GMMX 262130Z 10003KT 050V130 3000 TSRA BKN026 SCT033CB 14/13 Q1013 NOSIG
Observed
Mar-26 @ 21:30 UTC
Wind
  • 100° at 3 KTS
Visibility
2,993 meters
Flight Rules
IFR
Conditions
Thunderstorm, Rain
Cloud Levels
  • Broken at 2,600' AGL
  • Scattered at 3,300' AGL
Temperature
14°C / 57°F
Dewpoint
13°C / 55°F
Humidity
94%
Altimeter
29.91" Hg
Pressure
1012.92 hPa
Previous

2 hours ago

GMMX 262100Z VRB02KT 3000 TSRA BKN026 SCT033CB 14/13 Q1012 NOSIG
Observed
Mar-26 @ 21:00 UTC
Wind
  • Variable at 2 KTS
Visibility
2,993 meters
Flight Rules
IFR
Conditions
Thunderstorm, Rain
Cloud Levels
  • Broken at 2,600' AGL
  • Scattered at 3,300' AGL
Temperature
14°C / 57°F
Dewpoint
13°C / 55°F
Humidity
94%
Altimeter
29.88" Hg
Pressure
1011.92 hPa